NCAR-RAP Real-Time Weather Data

Output produced by METARs form (20 March 2018  09:48 UTC)
found at
Conditions at: K4O4 observed 20 March 2018  09:35 UTC
Temperature: 7.0°C (45°F)
Dewpoint: 2.0°C (36°F) [RH = 70%]
Pressure (altimeter): 29.87 inches Hg (1011.6 mb)
Winds: from the NW (310 degrees) at 10 MPH (9 knots; 4.7 m/s)
Visibility: 10 or more miles (16+ km)
Ceiling: at least 12,000 feet AGL
Clouds: sky clear below 12,000 feet AGL
Present Weather: automated observation with no human augmentation;
there may or may not be significant weather present at this time
K4O4 200935Z AUTO 31009KT 10SM CLR 07/02 A2987 RMK AO2